Liverpool John Lennon Airport

EGGP · Inglaterra, Reino Unido

História da METAR EGGP · Liverpool John Lennon Airport

Abaixo você vê METARs dos últimos dias. Selecione um ano para navegar pelos METARs mais antigos, a partir do ano 2007.

4 de dezembro de 2022

Hora Código Clima Temp. Visibilidade Tecto Vento METAR/SPECI
07:20
V
0 °C 10 km+ 4.900 ft 020° 020° 7 kt METAR EGGP 040720Z AUTO 02007KT 9999 FEW019/// SCT033/// BKN049/// ///// Q1019
06:50
V
0 °C 10 km+ - 030° 030° 6 kt METAR EGGP 040650Z AUTO 03006KT 9999 FEW033/// SCT039/// ///// Q1019
06:20
V
0 °C 10 km+ 4.600 ft 030° 030° 7 kt METAR EGGP 040620Z AUTO 03007KT 9999 SCT036/// BKN046/// ///// Q1019
05:50
V
0 °C 10 km+ 4.800 ft 040° 040° 7 kt METAR EGGP 040550Z AUTO 04007KT 9999 FEW033/// SCT039/// BKN048/// ///// Q1019
05:20
V
0 °C 10 km+ 3.800 ft 050° 050° 9 kt METAR EGGP 040520Z AUTO 05009KT 9999 FEW023/// SCT032/// BKN038/// ///// Q1019
04:50
V
0 °C 10 km+ - 040° 040° 9 kt METAR EGGP 040450Z AUTO 04009KT 9999 SCT046/// ///// Q1019
04:20
V
0 °C 10 km+ - 040° 040° 8 kt METAR EGGP 040420Z AUTO 04008KT 9999 FEW031/// ///// Q1019
00:20
V
0 °C 10 km+ - 010° 010° 8 kt METAR EGGP 040020Z AUTO 01008KT 9999 NCD ///// Q1020

3 de dezembro de 2022

Hora Código Clima Temp. Visibilidade Tecto Vento METAR/SPECI
23:50
V
0 °C 10 km+ - 020° 020° 7 kt METAR EGGP 032350Z AUTO 02007KT 9999 NCD ///// Q1020
23:20
V
0 °C 10 km+ - 010° 010° 6 kt METAR EGGP 032320Z AUTO 01006KT 9999 FEW026/// ///// Q1021
22:50
V
0 °C 10 km+ - 360° 360° 8 kt METAR EGGP 032250Z AUTO 36008KT 9999 FEW045/// ///// Q1021
22:20
V
0 °C 10 km+ - 030° 030° 6 kt METAR EGGP 032220Z AUTO 03006KT 9999 NCD ///// Q1021
21:50
V
0 °C 10 km+ - 030° 030° 7 kt METAR EGGP 032150Z AUTO 03007KT 9999 SCT022/// ///// Q1021
21:20
V
0 °C 10 km+ - 050° 050° 9 kt METAR EGGP 032120Z AUTO 05009KT 9999 NCD ///// Q1021
20:20
V
0 °C 10 km+ - 030° 030° 6 kt METAR EGGP 032020Z AUTO 03006KT 9999 NCD ///// Q1021
19:50
V
0 °C 10 km+ - 050° 050° 6 kt METAR EGGP 031950Z AUTO 05006KT 9999 NCD ///// Q1021
19:20
V
0 °C 10 km+ - 060° 060° 8 kt METAR EGGP 031920Z AUTO 06008KT 9999 NCD ///// Q1021
18:50
V
0 °C 10 km+ - 050° 050° 10 kt METAR EGGP 031850Z AUTO 05010KT 9999 NCD ///// Q1021
18:20
V
0 °C 10 km+ - 050° 050° 8 kt METAR EGGP 031820Z AUTO 05008KT 9999 NCD ///// Q1021
17:50
V
0 °C 10 km+ - 030° 030° 7 kt METAR EGGP 031750Z AUTO 03007KT 9999 NCD ///// Q1022
17:20
V
0 °C 10 km+ - 030° 030° 9 kt METAR EGGP 031720Z AUTO 03009KT 9999 NCD ///// Q1022
16:50
V
0 °C 10 km+ - 020° 020° 7 kt METAR EGGP 031650Z AUTO 02007KT 9999 FEW032/// ///// Q1022
16:20
V
0 °C 10 km+ - 040° 040° 8 kt METAR EGGP 031620Z AUTO 04008KT 9999 SCT030/// ///// Q1022
15:50
V
0 °C 10 km+ 4.100 ft 030° 030° 6 kt METAR EGGP 031550Z AUTO 03006KT 9999 SCT022/// BKN041/// ///// Q1022
15:20
M
0 °C 10 km+ 2.300 ft 040° 040° 6 kt METAR EGGP 031520Z AUTO 04006KT 9999 BKN023/// ///// Q1023
14:50
V
0 °C 10 km+ 3.500 ft 040° 040° 8 kt METAR EGGP 031450Z AUTO 04008KT 9999 SCT029/// BKN035/// BKN041/// ///// Q1023
14:20
V
0 °C 10 km+ 3.200 ft 030° 030° 7 kt METAR EGGP 031420Z AUTO 03007KT 9999 FEW022/// SCT027/// BKN032/// ///// Q1023
13:50
M
0 °C 10 km+ 2.500 ft 040° 040° 8 kt METAR EGGP 031350Z AUTO 04008KT 010V080 9999 BKN025/// BKN030/// ///// Q1023
13:20
V
0 °C 10 km+ - 050° 050° 10 kt METAR EGGP 031320Z AUTO 05010KT 9999 SCT021/// SCT027/// ///// Q1024
12:50
V
0 °C 10 km+ - 040° 040° 10 kt METAR EGGP 031250Z AUTO 04010KT 9999 NCD ///// Q1024
12:20
V
0 °C 10 km+ 3.500 ft 020° 020° 7 kt METAR EGGP 031220Z AUTO 02007KT 9999 BKN035/// ///// Q1024
11:50
V
0 °C 10 km+ - 040° 040° 6 kt METAR EGGP 031150Z AUTO 04006KT 9999 FEW036/// ///// Q1025
11:20
V
0 °C 10 km+ - 030° 030° 6 kt METAR EGGP 031120Z AUTO 03006KT 9999 NCD ///// Q1025
10:50
V
0 °C 10 km+ - 020° 020° 10 kt METAR EGGP 031050Z AUTO 02010KT 9999 SCT037/// ///// Q1026
10:20
V
0 °C 10 km+ 3.900 ft 010° 010° 7 kt METAR EGGP 031020Z AUTO 01007KT 9999 SCT033/// BKN039/// BKN046/// ///// Q1026
09:50
V
0 °C 10 km+ 3.400 ft 020° 020° 8 kt METAR EGGP 030950Z AUTO 02008KT 9999 SCT029/// BKN034/// ///// Q1026
09:20
V
0 °C 10 km+ 3.300 ft 020° 020° 8 kt METAR EGGP 030920Z AUTO 02008KT 9999 BKN033/// ///// Q1026
08:50
V
0 °C 10 km+ 3.200 ft 010° 010° 8 kt METAR EGGP 030850Z AUTO 01008KT 9999 OVC032/// ///// Q1026
08:20
V
0 °C 10 km+ - 010° 010° 7 kt METAR EGGP 030820Z AUTO 01007KT 9999 SCT036/// ///// Q1026
07:50
V
0 °C 10 km+ - 010° 010° 7 kt METAR EGGP 030750Z AUTO 01007KT 9999 NCD ///// Q1026
07:20
V
0 °C 10 km+ - 010° 010° 7 kt METAR EGGP 030720Z AUTO 01007KT 9999 NCD ///// Q1026
06:50
V
0 °C 10 km+ 3.300 ft 010° 010° 7 kt METAR EGGP 030650Z AUTO 01007KT 9999 BKN033/// ///// Q1026
06:20
V
0 °C 10 km+ - 020° 020° 8 kt METAR EGGP 030620Z AUTO 02008KT 9999 FEW035/// ///// Q1027
05:50
V
0 °C 10 km+ 3.800 ft 010° 010° 7 kt METAR EGGP 030550Z AUTO 01007KT 9999 R09/M0050N SCT032/// BKN038/// ///// Q1027
05:20
V
0 °C 10 km+ 3.600 ft 010° 010° 7 kt METAR EGGP 030520Z AUTO 01007KT 9999 R09/M0050N BKN036/// ///// Q1027
04:50
V
0 °C 10 km+ - 010° 010° 7 kt METAR EGGP 030450Z AUTO 01007KT 9999 R09/M0050N NCD ///// Q1028
04:20
V
0 °C 10 km+ - 020° 020° 7 kt METAR EGGP 030420Z AUTO 02007KT 9999 R09/M0050N FEW033/// ///// Q1028
03:50
V
0 °C 10 km+ - 020° 020° 7 kt METAR EGGP 030350Z AUTO 02007KT 9999 R09/M0050N FEW033/// ///// Q1028
03:20
V
0 °C 10 km+ - 030° 030° 9 kt METAR EGGP 030320Z AUTO 03009KT 9999 R09/M0050N SCT037/// ///// Q1028
02:50
V
0 °C 10 km+ 3.600 ft 030° 030° 7 kt METAR EGGP 030250Z AUTO 03007KT 9999 R09/M0050N OVC036/// ///// Q1028
02:20
V
0 °C 10 km+ 3.200 ft 040° 040° 8 kt METAR EGGP 030220Z AUTO 04008KT 9999 R09/M0050N OVC032/// ///// Q1028
01:50
M
0 °C 10 km+ 2.900 ft 020° 020° 8 kt METAR EGGP 030150Z AUTO 02008KT 9999 R09/M0050N FEW023/// BKN029/// ///// Q1028
01:20
V
0 °C 10 km+ - 020° 020° 8 kt METAR EGGP 030120Z AUTO 02008KT 9999 R09/M0050N FEW029/// ///// Q1028
00:50
V
0 °C 10 km+ - 020° 020° 9 kt METAR EGGP 030050Z AUTO 02009KT 9999 R09/M0050N NCD ///// Q1028
00:20
V
0 °C 10 km+ - 010° 010° 8 kt METAR EGGP 030020Z AUTO 01008KT 9999 R09/M0050N NCD ///// Q1028

2 de dezembro de 2022

Hora Código Clima Temp. Visibilidade Tecto Vento METAR/SPECI
23:50
V
0 °C 10 km+ - 030° 030° 9 kt METAR EGGP 022350Z AUTO 03009KT 9999 NCD ///// Q1028
23:20
V
0 °C 10 km+ - 030° 030° 9 kt METAR EGGP 022320Z AUTO 03009KT 9999 NCD ///// Q1028
22:50
V
0 °C 10 km+ - 030° 030° 8 kt METAR EGGP 022250Z AUTO 03008KT 9999 FEW042/// ///// Q1028
22:20
V
0 °C 10 km+ - 030° 030° 6 kt METAR EGGP 022220Z AUTO 03006KT 9999 NCD ///// Q1028
21:50
V
0 °C 10 km+ - 040° 040° 9 kt METAR EGGP 022150Z AUTO 04009KT 9999 NCD ///// Q1028
21:20
V
0 °C 10 km+ - 050° 050° 8 kt METAR EGGP 022120Z AUTO 05008KT 9999 NCD ///// Q1028
20:50
V
0 °C 10 km+ - 050° 050° 7 kt METAR EGGP 022050Z AUTO 05007KT 9999 NCD ///// Q1028
20:20
V
0 °C 10 km+ - 050° 050° 7 kt METAR EGGP 022020Z AUTO 05007KT 9999 NCD ///// Q1028
19:50
V
0 °C 10 km+ - 040° 040° 7 kt METAR EGGP 021950Z AUTO 04007KT 9999 FEW040/// ///// Q1028
19:20
V
0 °C 10 km+ - 040° 040° 7 kt METAR EGGP 021920Z AUTO 04007KT 9999 NCD ///// Q1028
18:50
V
0 °C 10 km+ - 050° 050° 8 kt METAR EGGP 021850Z AUTO 05008KT 9999 NCD ///// Q1028
18:20
V
0 °C 10 km+ - 040° 040° 6 kt METAR EGGP 021820Z AUTO 04006KT 9999 NCD ///// Q1028
17:50
V
5 °C 10 km+ - 060° 060° 4 kt METAR EGGP 021750Z 06004KT 9999 FEW020 05/04 Q1028
17:20
V
5 °C 10 km+ - 050° 050° 4 kt METAR EGGP 021720Z 05004KT 360V080 9999 FEW020 SCT040 05/04 Q1028
16:50
V
5 °C 8 km 3.800 ft Var Var 2 kt METAR EGGP 021650Z VRB02KT 8000 FEW018 BKN038 05/04 Q1028
16:20
V
5 °C 8 km 3.800 ft Var Var 1 kt METAR EGGP 021620Z VRB01KT 8000 FEW018 BKN038 05/04 Q1028
15:50
V
5 °C 8 km 4.900 ft Var Var 1 kt METAR EGGP 021550Z VRB01KT 8000 FEW025 BKN049 05/04 Q1027
15:20
V
6 °C 8 km 4.800 ft Var Var 1 kt METAR EGGP 021520Z VRB01KT 8000 FEW020 BKN048 06/05 Q1027
14:50
M
6 °C 7 km 4.900 ft Var Var 1 kt METAR EGGP 021450Z VRB01KT 7000 SCT010 BKN049 06/05 Q1027
14:20
M
6 °C 6 km 4.500 ft Var Var 1 kt METAR EGGP 021420Z VRB01KT 6000 SCT004 BKN045 06/05 Q1027
13:50
M
5 °C 5 km 1.000 ft Var Var 1 kt METAR EGGP 021350Z VRB01KT 5000 BR SCT003 BKN010 05/04 Q1027
13:20
M
6 °C 5 km 1.000 ft 120° 120° 3 kt METAR EGGP 021320Z 12003KT 090V160 5000 BR SCT004 BKN010 06/05 Q1027
12:50
L
4 °C 5 km 300 ft 190° 190° 4 kt METAR EGGP 021250Z 19004KT 120V210 5000 BR OVC003 04/04 Q1027
12:20
L
4 °C 5 km 400 ft 160° 160° 3 kt METAR EGGP 021220Z 16003KT 100V210 5000 BR OVC004 04/04 Q1027
11:50
L
4 °C 3 km 200 ft 170° 170° 3 kt METAR EGGP 021150Z 17003KT 120V220 3000 BR OVC002 04/04 Q1028
11:20
L
4 °C 3 km - 170° 170° 3 kt METAR EGGP 021120Z 17003KT 100V230 3000 BR VV/// 04/04 Q1028
10:50
L
5 °C 2,5 km - 160° 160° 3 kt METAR EGGP 021050Z 16003KT 110V230 2500 BR VV/// 05/05 Q1028
10:20
L
4 °C 1,8 km - 160° 160° 3 kt METAR EGGP 021020Z 16003KT 110V220 1800 BR VV/// 04/03 Q1028
09:50
L
4 °C 1 km - 160° 160° 4 kt METAR EGGP 020950Z 16004KT 060V210 1000 R27/0900U BR VV/// 04/03 Q1028
09:20
L
4 °C 900 m - 150° 150° 4 kt METAR EGGP 020920Z 15004KT 090V200 0900 R27/0750N FG VV/// 04/03 Q1028
08:50
L
4 °C 800 m - 150° 150° 4 kt METAR EGGP 020850Z 15004KT 100V200 0800 R27/0550U FG VV/// 04/03 Q1028
08:20
L
2 °C 600 m - 150° 150° 4 kt METAR EGGP 020820Z 15004KT 100V180 0600 FG VV/// 02/01 Q1027
07:50
L
4 °C 600 m - 160° 160° 4 kt METAR EGGP 020750Z 16004KT 100V220 0600 FG VV/// 04/03 Q1027
07:20
L
2 °C 1 km - 160° 160° 4 kt METAR EGGP 020720Z 16004KT 100V210 1000 BR VV/// 02/01 Q1027
06:50
I
4 °C 1,5 km - 160° 160° 5 kt METAR EGGP 020650Z 16005KT 110V250 1500 BR OVC000 04/03 Q1027
06:20
I
4 °C 1,5 km - 160° 160° 5 kt METAR EGGP 020620Z 16005KT 100V210 1500 BR OVC000 04/03 Q1027
05:50
L
4 °C 800 m - 130° 130° 4 kt METAR EGGP 020550Z 13004KT 070V190 0800 R27/M0050N FG OVC000 04/03 Q1027
05:20
L
4 °C 1 km 100 ft 160° 160° 5 kt METAR EGGP 020520Z 16005KT 100V220 1000 R27/M0050N BR OVC001 04/03 Q1027
04:50
I
0 °C 1,6 km - 160° 160° 5 kt METAR EGGP 020450Z AUTO 16005KT 110V210 1600 R27/M0050N HZ OVC000/// ///// Q1027
04:20
I
0 °C 1,7 km - 150° 150° 4 kt METAR EGGP 020420Z AUTO 15004KT 090V220 1700 R27/M0050N HZ OVC000/// ///// Q1027
03:50
L
0 °C 1,2 km - 160° 160° 5 kt METAR EGGP 020350Z AUTO 16005KT 100V220 1200 R27/M0050N HZ OVC000/// ///// Q1027
03:20
I
0 °C 3,2 km - 150° 150° 5 kt METAR EGGP 020320Z AUTO 15005KT 110V200 3200 R27/M0050N HZ OVC000/// ///// Q1027
02:50
I
0 °C 2,3 km - 140° 140° 6 kt METAR EGGP 020250Z AUTO 14006KT 100V190 2300 R27/M0050N HZ OVC000/// ///// Q1028
02:20
L
0 °C 750 m - 110° 110° 7 kt METAR EGGP 020220Z AUTO 11007KT 0750 R27/M0050N FG OVC000/// ///// Q1028
01:50
L
0 °C 1 km - 120° 120° 6 kt METAR EGGP 020150Z AUTO 12006KT 1000 R27/M0050N HZ OVC000/// ///// Q1028
01:20
L
0 °C 1,2 km - 130° 130° 7 kt METAR EGGP 020120Z AUTO 13007KT 100V160 1200 R27/M0050N HZ OVC000/// ///// Q1028
00:50
L
0 °C 1,1 km - 130° 130° 7 kt METAR EGGP 020050Z AUTO 13007KT 090V170 1100 R27/M0050N BR OVC000/// ///// Q1028
00:20
L
4 °C 1,1 km - 140° 140° 6 kt METAR EGGP 020020Z AUTO 14006KT 100V170 1100 R27/M0050N BR OVC000/// 04/04 Q1028

1 de dezembro de 2022

Hora Código Clima Temp. Visibilidade Tecto Vento METAR/SPECI
23:50
L
4 °C 500 m - 130° 130° 7 kt METAR EGGP 012350Z 13007KT 0500 R27/M0050D FG OVC000 04/04 Q1028
23:20
L
4 °C 900 m - 120° 120° 6 kt METAR EGGP 012320Z 12006KT 0900 R27/P1500N FG OVC000 04/04 Q1029
22:50
L
4 °C 600 m - 120° 120° 6 kt METAR EGGP 012250Z 12006KT 090V160 0600 R27/P1500N FG OVC000 04/04 Q1028
22:20
L
4 °C 800 m - 150° 150° 6 kt METAR EGGP 012220Z 15006KT 120V180 0800 R27/P1500N FG OVC000 04/04 Q1028
21:50
L
4 °C 900 m - 130° 130° 7 kt METAR EGGP 012150Z 13007KT 090V160 0900 R27/P1500N FG OVC000 04/04 Q1028
21:20
L
5 °C 900 m 100 ft 130° 130° 7 kt METAR EGGP 012120Z 13007KT 100V180 0900 R27/P1500N FG OVC001 05/04 Q1028
20:50
L
5 °C 900 m - 160° 160° 6 kt METAR EGGP 012050Z 16006KT 090V220 0900 R27/P1500N FG OVC000 05/04 Q1028
20:20
L
5 °C 600 m - 160° 160° 5 kt METAR EGGP 012020Z 16005KT 090V220 0600 R27/1400U FG OVC000 05/04 Q1028
19:50
L
5 °C 600 m - 130° 130° 6 kt METAR EGGP 011950Z 13006KT 090V190 0600 R27/P1500U FG OVC000 05/04 Q1028
19:20
L
5 °C 2,5 km 100 ft 150° 150° 8 kt METAR EGGP 011920Z 15008KT 120V180 2500 BR OVC001 05/04 Q1028
18:50
L
5 °C 5 km 200 ft 160° 160° 8 kt METAR EGGP 011850Z 16008KT 5000 BR OVC002 05/04 Q1028
18:20
L
5 °C 6 km 200 ft 160° 160° 6 kt METAR EGGP 011820Z 16006KT 130V190 6000 OVC002 05/04 Q1028
17:50
L
5 °C 6 km 200 ft 140° 140° 6 kt METAR EGGP 011750Z 14006KT 070V180 6000 OVC002 05/04 Q1028
17:20
L
6 °C 6 km 300 ft 130° 130° 6 kt METAR EGGP 011720Z 13006KT 080V170 6000 OVC003 06/05 Q1028
16:50
L
6 °C 6 km 400 ft 160° 160° 7 kt METAR EGGP 011650Z 16007KT 110V180 6000 OVC004 06/05 Q1028
16:20
L
6 °C 6 km 400 ft 150° 150° 7 kt METAR EGGP 011620Z 15007KT 110V170 6000 OVC004 06/05 Q1028
15:50
L
7 °C 6 km 400 ft 150° 150° 6 kt METAR EGGP 011550Z 15006KT 100V180 6000 OVC004 07/06 Q1028
15:20
I
7 °C 7 km 500 ft 140° 140° 5 kt METAR EGGP 011520Z 14005KT 080V180 7000 OVC005 07/06 Q1028
14:50
I
7 °C 7 km 500 ft 130° 130° 4 kt METAR EGGP 011450Z 13004KT 090V180 7000 BKN005 BKN015 07/06 Q1028
14:20
I
7 °C 7 km 600 ft 140° 140° 6 kt METAR EGGP 011420Z 14006KT 100V190 7000 BKN006 BKN015 07/06 Q1028
13:50
I
7 °C 7 km 600 ft 140° 140° 5 kt METAR EGGP 011350Z 14005KT 080V190 7000 BKN006 BKN015 07/06 Q1029
13:20
I
7 °C 7 km 700 ft 140° 140° 5 kt METAR EGGP 011320Z 14005KT 080V190 7000 BKN007 BKN015 07/06 Q1029
12:50
I
7 °C 7 km 600 ft 130° 130° 5 kt METAR EGGP 011250Z 13005KT 080V210 7000 BKN006 OVC013 07/05 Q1029
12:20
I
7 °C 6 km 600 ft 140° 140° 5 kt METAR EGGP 011220Z 14005KT 080V200 6000 BKN006 OVC013 07/05 Q1029
11:50
I
6 °C 6 km 600 ft 130° 130° 6 kt METAR EGGP 011150Z 13006KT 080V160 6000 BKN006 OVC013 06/05 Q1029
11:20
I
7 °C 6 km 900 ft 140° 140° 5 kt METAR EGGP 011120Z 14005KT 090V200 6000 BKN009 BKN018 07/05 Q1029
10:50
M
7 °C 6 km 2.000 ft 140° 140° 6 kt METAR EGGP 011050Z 14006KT 100V200 6000 SCT009 BKN020 07/05 Q1029
10:20
M
6 °C 6 km 1.500 ft 140° 140° 6 kt METAR EGGP 011020Z 14006KT 070V180 6000 SCT007 BKN015 06/05 Q1029
09:50
M
6 °C 6 km 2.800 ft 130° 130° 6 kt METAR EGGP 010950Z 13006KT 060V170 6000 BKN028 BKN031 06/05 Q1029

Nós e terceiros acompanhamos seu comportamento na internet em nosso site com cookies. Se você continuar, nós assumimos que você concorda com nosso política de cookies.